sensor_id;sensor_type;location;lat;lon;timestamp;temperature;humidity
18658;DHT22;9458;50.942;5.074;2022-10-03T00:02:25;12.40;99.90
18658;DHT22;9458;50.942;5.074;2022-10-03T00:05:13;12.40;99.90
18658;DHT22;9458;50.942;5.074;2022-10-03T00:07:57;12.40;99.90
18658;DHT22;9458;50.942;5.074;2022-10-03T00:10:32;12.40;99.90
18658;DHT22;9458;50.942;5.074;2022-10-03T00:13:16;12.40;99.90
18658;DHT22;9458;50.942;5.074;2022-10-03T00:15:50;12.40;99.90
18658;DHT22;9458;50.942;5.074;2022-10-03T00:18:29;12.40;99.90
18658;DHT22;9458;50.942;5.074;2022-10-03T00:21:08;12.40;99.90
18658;DHT22;9458;50.942;5.074;2022-10-03T00:23:59;12.40;99.90
18658;DHT22;9458;50.942;5.074;2022-10-03T00:26:39;12.40;99.90
18658;DHT22;9458;50.942;5.074;2022-10-03T00:29:21;12.40;99.90
18658;DHT22;9458;50.942;5.074;2022-10-03T00:31:57;12.40;99.90
18658;DHT22;9458;50.942;5.074;2022-10-03T00:34:38;12.40;99.90
18658;DHT22;9458;50.942;5.074;2022-10-03T00:37:19;12.30;99.90
18658;DHT22;9458;50.942;5.074;2022-10-03T00:40:18;12.30;99.90
18658;DHT22;9458;50.942;5.074;2022-10-03T00:43:32;12.30;99.90
18658;DHT22;9458;50.942;5.074;2022-10-03T00:46:23;12.30;99.90
18658;DHT22;9458;50.942;5.074;2022-10-03T00:52:10;12.30;99.90
18658;DHT22;9458;50.942;5.074;2022-10-03T00:54:58;12.30;99.90
18658;DHT22;9458;50.942;5.074;2022-10-03T00:57:58;12.30;99.90
18658;DHT22;9458;50.942;5.074;2022-10-03T01:00:27;12.30;99.90
18658;DHT22;9458;50.942;5.074;2022-10-03T01:06:05;12.20;99.90
18658;DHT22;9458;50.942;5.074;2022-10-03T01:08:56;12.20;99.90
18658;DHT22;9458;50.942;5.074;2022-10-03T01:11:34;12.20;99.90
18658;DHT22;9458;50.942;5.074;2022-10-03T01:14:17;12.20;99.90
18658;DHT22;9458;50.942;5.074;2022-10-03T01:16:57;12.10;99.90
18658;DHT22;9458;50.942;5.074;2022-10-03T01:19:47;12.10;99.90
18658;DHT22;9458;50.942;5.074;2022-10-03T01:22:37;12.10;99.90
18658;DHT22;9458;50.942;5.074;2022-10-03T01:25:17;12.00;99.90
18658;DHT22;9458;50.942;5.074;2022-10-03T01:27:52;12.00;99.90
18658;DHT22;9458;50.942;5.074;2022-10-03T01:30:41;12.00;99.90
18658;DHT22;9458;50.942;5.074;2022-10-03T01:33:17;12.00;99.90
18658;DHT22;9458;50.942;5.074;2022-10-03T01:35:54;11.90;99.90
18658;DHT22;9458;50.942;5.074;2022-10-03T01:38:26;11.90;99.90
18658;DHT22;9458;50.942;5.074;2022-10-03T01:40:58;11.80;99.90
18658;DHT22;9458;50.942;5.074;2022-10-03T01:43:35;11.80;99.90
18658;DHT22;9458;50.942;5.074;2022-10-03T01:46:10;11.80;99.90
18658;DHT22;9458;50.942;5.074;2022-10-03T01:48:47;11.80;99.90
18658;DHT22;9458;50.942;5.074;2022-10-03T01:51:21;11.80;99.90
18658;DHT22;9458;50.942;5.074;2022-10-03T01:54:05;11.80;99.90
18658;DHT22;9458;50.942;5.074;2022-10-03T01:56:37;11.70;99.90
18658;DHT22;9458;50.942;5.074;2022-10-03T01:59:11;11.70;99.90
18658;DHT22;9458;50.942;5.074;2022-10-03T02:01:47;11.70;99.90
18658;DHT22;9458;50.942;5.074;2022-10-03T02:04:26;11.70;99.90
18658;DHT22;9458;50.942;5.074;2022-10-03T02:07:03;11.70;99.90
18658;DHT22;9458;50.942;5.074;2022-10-03T02:09:37;11.70;99.90
18658;DHT22;9458;50.942;5.074;2022-10-03T02:12:12;11.60;99.90
18658;DHT22;9458;50.942;5.074;2022-10-03T02:14:50;11.60;99.90
18658;DHT22;9458;50.942;5.074;2022-10-03T02:17:29;11.60;99.90
18658;DHT22;9458;50.942;5.074;2022-10-03T02:20:08;11.60;99.90
18658;DHT22;9458;50.942;5.074;2022-10-03T02:22:44;11.60;99.90
18658;DHT22;9458;50.942;5.074;2022-10-03T02:25:23;11.50;99.90
18658;DHT22;9458;50.942;5.074;2022-10-03T02:28:27;11.50;99.90
18658;DHT22;9458;50.942;5.074;2022-10-03T02:34:24;11.40;99.90
18658;DHT22;9458;50.942;5.074;2022-10-03T02:37:24;11.40;99.90
18658;DHT22;9458;50.942;5.074;2022-10-03T02:43:26;11.40;99.90
18658;DHT22;9458;50.942;5.074;2022-10-03T02:46:26;11.40;99.90
18658;DHT22;9458;50.942;5.074;2022-10-03T02:55:43;11.30;99.90
18658;DHT22;9458;50.942;5.074;2022-10-03T02:58:41;11.30;99.90
18658;DHT22;9458;50.942;5.074;2022-10-03T03:01:48;11.20;99.90
18658;DHT22;9458;50.942;5.074;2022-10-03T03:05:17;11.20;99.90
18658;DHT22;9458;50.942;5.074;2022-10-03T03:08:22;11.20;99.90
18658;DHT22;9458;50.942;5.074;2022-10-03T03:14:27;11.20;99.90
18658;DHT22;9458;50.942;5.074;2022-10-03T03:17:16;11.20;99.90
18658;DHT22;9458;50.942;5.074;2022-10-03T03:20:02;11.20;99.90
18658;DHT22;9458;50.942;5.074;2022-10-03T03:22:47;11.10;99.90
18658;DHT22;9458;50.942;5.074;2022-10-03T03:25:35;11.10;99.90
18658;DHT22;9458;50.942;5.074;2022-10-03T03:28:14;11.10;99.90
18658;DHT22;9458;50.942;5.074;2022-10-03T03:30:54;11.00;99.90
18658;DHT22;9458;50.942;5.074;2022-10-03T03:33:29;11.00;99.90
18658;DHT22;9458;50.942;5.074;2022-10-03T03:36:10;11.00;99.90
18658;DHT22;9458;50.942;5.074;2022-10-03T03:38:51;11.00;99.90
18658;DHT22;9458;50.942;5.074;2022-10-03T03:44:36;10.90;99.90
18658;DHT22;9458;50.942;5.074;2022-10-03T03:47:35;10.90;99.90
18658;DHT22;9458;50.942;5.074;2022-10-03T03:50:25;10.90;99.90
18658;DHT22;9458;50.942;5.074;2022-10-03T03:53:09;10.90;99.90
18658;DHT22;9458;50.942;5.074;2022-10-03T03:55:58;10.90;99.90
18658;DHT22;9458;50.942;5.074;2022-10-03T03:58:36;10.90;99.90
18658;DHT22;9458;50.942;5.074;2022-10-03T04:01:34;10.90;99.90
18658;DHT22;9458;50.942;5.074;2022-10-03T04:04:14;10.80;99.90
18658;DHT22;9458;50.942;5.074;2022-10-03T04:06:54;10.80;99.90
18658;DHT22;9458;50.942;5.074;2022-10-03T04:09:39;10.80;99.90
18658;DHT22;9458;50.942;5.074;2022-10-03T04:12:19;10.80;99.90
18658;DHT22;9458;50.942;5.074;2022-10-03T04:18:23;10.80;99.90
18658;DHT22;9458;50.942;5.074;2022-10-03T04:21:23;10.70;99.90
18658;DHT22;9458;50.942;5.074;2022-10-03T04:24:12;10.70;99.90
18658;DHT22;9458;50.942;5.074;2022-10-03T04:26:58;10.70;99.90
18658;DHT22;9458;50.942;5.074;2022-10-03T04:29:42;10.70;99.90
18658;DHT22;9458;50.942;5.074;2022-10-03T04:32:44;10.70;99.90
18658;DHT22;9458;50.942;5.074;2022-10-03T04:35:36;10.70;99.90
18658;DHT22;9458;50.942;5.074;2022-10-03T04:38:24;10.60;99.90
18658;DHT22;9458;50.942;5.074;2022-10-03T04:41:09;10.60;99.90
18658;DHT22;9458;50.942;5.074;2022-10-03T04:43:41;10.60;99.90
18658;DHT22;9458;50.942;5.074;2022-10-03T04:46:22;10.60;99.90
18658;DHT22;9458;50.942;5.074;2022-10-03T04:48:57;10.60;99.90
18658;DHT22;9458;50.942;5.074;2022-10-03T04:51:43;10.60;99.90
18658;DHT22;9458;50.942;5.074;2022-10-03T04:54:21;10.50;99.90
18658;DHT22;9458;50.942;5.074;2022-10-03T04:56:56;10.50;99.90
18658;DHT22;9458;50.942;5.074;2022-10-03T04:59:33;10.50;99.90
18658;DHT22;9458;50.942;5.074;2022-10-03T05:02:15;10.50;99.90
18658;DHT22;9458;50.942;5.074;2022-10-03T05:05:07;10.50;99.90
18658;DHT22;9458;50.942;5.074;2022-10-03T05:07:47;10.50;99.90
18658;DHT22;9458;50.942;5.074;2022-10-03T05:10:25;10.50;99.90
18658;DHT22;9458;50.942;5.074;2022-10-03T05:13:04;10.40;99.90
18658;DHT22;9458;50.942;5.074;2022-10-03T05:15:49;10.40;99.90
18658;DHT22;9458;50.942;5.074;2022-10-03T05:18:23;10.40;99.90
18658;DHT22;9458;50.942;5.074;2022-10-03T05:21:04;10.40;99.90
18658;DHT22;9458;50.942;5.074;2022-10-03T05:23:43;10.40;99.90
18658;DHT22;9458;50.942;5.074;2022-10-03T05:26:21;10.30;99.90
18658;DHT22;9458;50.942;5.074;2022-10-03T05:28:56;10.30;99.90
18658;DHT22;9458;50.942;5.074;2022-10-03T05:31:33;10.40;99.90
18658;DHT22;9458;50.942;5.074;2022-10-03T05:34:15;10.40;99.90
18658;DHT22;9458;50.942;5.074;2022-10-03T05:37:01;10.40;99.90
18658;DHT22;9458;50.942;5.074;2022-10-03T05:39:39;10.40;99.90
18658;DHT22;9458;50.942;5.074;2022-10-03T05:42:36;10.40;99.90
18658;DHT22;9458;50.942;5.074;2022-10-03T05:45:20;10.30;99.90
18658;DHT22;9458;50.942;5.074;2022-10-03T05:47:51;10.30;99.90
18658;DHT22;9458;50.942;5.074;2022-10-03T05:54:02;10.30;99.90
18658;DHT22;9458;50.942;5.074;2022-10-03T05:59:59;10.20;99.90
18658;DHT22;9458;50.942;5.074;2022-10-03T06:06:16;10.30;99.90
18658;DHT22;9458;50.942;5.074;2022-10-03T06:09:22;10.40;99.90
18658;DHT22;9458;50.942;5.074;2022-10-03T06:12:12;10.40;99.90
18658;DHT22;9458;50.942;5.074;2022-10-03T06:15:13;10.40;99.90
18658;DHT22;9458;50.942;5.074;2022-10-03T06:17:59;10.40;99.90
18658;DHT22;9458;50.942;5.074;2022-10-03T06:24:14;10.50;99.90
18658;DHT22;9458;50.942;5.074;2022-10-03T06:27:17;10.50;99.90
18658;DHT22;9458;50.942;5.074;2022-10-03T06:30:11;10.70;99.90
18658;DHT22;9458;50.942;5.074;2022-10-03T06:36:34;11.50;99.90
18658;DHT22;9458;50.942;5.074;2022-10-03T06:42:38;12.40;99.90
18658;DHT22;9458;50.942;5.074;2022-10-03T07:00:49;14.50;99.90
18658;DHT22;9458;50.942;5.074;2022-10-03T07:03:47;15.00;99.90
18658;DHT22;9458;50.942;5.074;2022-10-03T07:06:39;15.00;99.90
18658;DHT22;9458;50.942;5.074;2022-10-03T07:12:37;15.50;99.90
18658;DHT22;9458;50.942;5.074;2022-10-03T07:15:31;15.10;99.90
18658;DHT22;9458;50.942;5.074;2022-10-03T07:21:55;14.20;99.90
18658;DHT22;9458;50.942;5.074;2022-10-03T07:25:03;13.90;99.90
18658;DHT22;9458;50.942;5.074;2022-10-03T07:27:49;13.80;99.90
18658;DHT22;9458;50.942;5.074;2022-10-03T07:30:21;13.90;99.90
18658;DHT22;9458;50.942;5.074;2022-10-03T07:39:59;14.50;99.90
18658;DHT22;9458;50.942;5.074;2022-10-03T07:42:51;14.80;99.90
18658;DHT22;9458;50.942;5.074;2022-10-03T07:45:31;15.10;99.90
18658;DHT22;9458;50.942;5.074;2022-10-03T07:51:12;15.80;99.90
18658;DHT22;9458;50.942;5.074;2022-10-03T07:57:14;17.60;99.90
18658;DHT22;9458;50.942;5.074;2022-10-03T08:00:03;17.80;99.90
18658;DHT22;9458;50.942;5.074;2022-10-03T08:03:01;17.70;99.90
18658;DHT22;9458;50.942;5.074;2022-10-03T08:05:48;17.90;99.90
18658;DHT22;9458;50.942;5.074;2022-10-03T08:14:54;20.00;99.90
18658;DHT22;9458;50.942;5.074;2022-10-03T08:20:44;20.50;99.90
18658;DHT22;9458;50.942;5.074;2022-10-03T08:26:35;22.00;99.90
18658;DHT22;9458;50.942;5.074;2022-10-03T08:29:40;22.70;99.90
18658;DHT22;9458;50.942;5.074;2022-10-03T08:41:35;24.00;99.90
18658;DHT22;9458;50.942;5.074;2022-10-03T08:44:42;24.20;99.90
18658;DHT22;9458;50.942;5.074;2022-10-03T08:47:47;24.50;99.90
18658;DHT22;9458;50.942;5.074;2022-10-03T08:54:03;24.90;99.90
18658;DHT22;9458;50.942;5.074;2022-10-03T08:56:56;25.50;99.90
18658;DHT22;9458;50.942;5.074;2022-10-03T09:00:10;25.80;99.90
18658;DHT22;9458;50.942;5.074;2022-10-03T09:06:16;26.20;99.90
18658;DHT22;9458;50.942;5.074;2022-10-03T09:12:32;27.10;99.90
18658;DHT22;9458;50.942;5.074;2022-10-03T09:15:38;27.60;99.00
18658;DHT22;9458;50.942;5.074;2022-10-03T09:18:46;27.90;98.80
18658;DHT22;9458;50.942;5.074;2022-10-03T09:21:52;28.20;97.90
18658;DHT22;9458;50.942;5.074;2022-10-03T09:27:42;28.50;96.70
18658;DHT22;9458;50.942;5.074;2022-10-03T09:30:32;28.60;96.80
18658;DHT22;9458;50.942;5.074;2022-10-03T09:37:01;27.80;97.60
18658;DHT22;9458;50.942;5.074;2022-10-03T09:40:07;27.10;99.20
18658;DHT22;9458;50.942;5.074;2022-10-03T09:43:01;26.10;99.90
18658;DHT22;9458;50.942;5.074;2022-10-03T09:52:07;23.80;99.90
18658;DHT22;9458;50.942;5.074;2022-10-03T09:55:26;23.20;99.90
18658;DHT22;9458;50.942;5.074;2022-10-03T10:01:13;22.30;99.90
18658;DHT22;9458;50.942;5.074;2022-10-03T10:07:48;21.80;99.90
18658;DHT22;9458;50.942;5.074;2022-10-03T10:10:49;21.60;99.90
18658;DHT22;9458;50.942;5.074;2022-10-03T10:13:36;21.40;99.90
18658;DHT22;9458;50.942;5.074;2022-10-03T10:16:44;21.40;99.90
18658;DHT22;9458;50.942;5.074;2022-10-03T10:19:30;21.30;99.90
18658;DHT22;9458;50.942;5.074;2022-10-03T10:22:26;21.00;99.90
18658;DHT22;9458;50.942;5.074;2022-10-03T10:28:25;21.10;99.90
18658;DHT22;9458;50.942;5.074;2022-10-03T10:34:36;21.20;99.90
18658;DHT22;9458;50.942;5.074;2022-10-03T10:37:37;21.30;99.90
18658;DHT22;9458;50.942;5.074;2022-10-03T10:40:36;21.20;99.90
18658;DHT22;9458;50.942;5.074;2022-10-03T10:46:44;21.20;99.90
18658;DHT22;9458;50.942;5.074;2022-10-03T10:49:44;21.10;99.90
18658;DHT22;9458;50.942;5.074;2022-10-03T10:52:49;21.00;99.90
18658;DHT22;9458;50.942;5.074;2022-10-03T10:56:14;21.00;99.90
18658;DHT22;9458;50.942;5.074;2022-10-03T10:59:29;20.80;99.90
18658;DHT22;9458;50.942;5.074;2022-10-03T11:05:40;20.70;99.90
18658;DHT22;9458;50.942;5.074;2022-10-03T11:08:54;20.80;99.90
18658;DHT22;9458;50.942;5.074;2022-10-03T11:24:16;20.70;99.90
18658;DHT22;9458;50.942;5.074;2022-10-03T11:27:18;20.70;99.90
18658;DHT22;9458;50.942;5.074;2022-10-03T11:30:17;20.70;99.90
18658;DHT22;9458;50.942;5.074;2022-10-03T11:39:00;20.40;99.90
18658;DHT22;9458;50.942;5.074;2022-10-03T11:41:44;20.30;99.90
18658;DHT22;9458;50.942;5.074;2022-10-03T11:44:23;20.30;99.90
18658;DHT22;9458;50.942;5.074;2022-10-03T11:47:22;20.20;99.90
18658;DHT22;9458;50.942;5.074;2022-10-03T11:50:22;20.20;99.90
18658;DHT22;9458;50.942;5.074;2022-10-03T11:53:07;20.10;99.90
18658;DHT22;9458;50.942;5.074;2022-10-03T11:55:39;20.10;99.90
18658;DHT22;9458;50.942;5.074;2022-10-03T11:58:29;20.00;99.90
18658;DHT22;9458;50.942;5.074;2022-10-03T12:01:11;20.00;99.90
18658;DHT22;9458;50.942;5.074;2022-10-03T12:03:49;19.90;99.90
18658;DHT22;9458;50.942;5.074;2022-10-03T12:06:29;19.90;99.90
18658;DHT22;9458;50.942;5.074;2022-10-03T12:09:20;20.00;99.90
18658;DHT22;9458;50.942;5.074;2022-10-03T12:11:56;20.00;99.90
18658;DHT22;9458;50.942;5.074;2022-10-03T12:14:28;19.90;99.90
18658;DHT22;9458;50.942;5.074;2022-10-03T12:17:04;19.90;99.90
18658;DHT22;9458;50.942;5.074;2022-10-03T12:19:41;19.80;99.90
18658;DHT22;9458;50.942;5.074;2022-10-03T12:22:21;19.70;99.90
18658;DHT22;9458;50.942;5.074;2022-10-03T12:24:56;19.60;99.90
18658;DHT22;9458;50.942;5.074;2022-10-03T12:27:33;19.60;99.90
18658;DHT22;9458;50.942;5.074;2022-10-03T12:30:12;19.50;99.90
18658;DHT22;9458;50.942;5.074;2022-10-03T12:32:47;19.50;99.90
18658;DHT22;9458;50.942;5.074;2022-10-03T12:35:31;19.40;99.90
18658;DHT22;9458;50.942;5.074;2022-10-03T12:38:12;19.30;99.90
18658;DHT22;9458;50.942;5.074;2022-10-03T12:40:47;19.20;99.90
18658;DHT22;9458;50.942;5.074;2022-10-03T12:43:35;19.20;99.90
18658;DHT22;9458;50.942;5.074;2022-10-03T12:46:12;19.10;99.90
18658;DHT22;9458;50.942;5.074;2022-10-03T12:48:45;19.10;99.90
18658;DHT22;9458;50.942;5.074;2022-10-03T12:51:24;19.10;99.90
18658;DHT22;9458;50.942;5.074;2022-10-03T12:54:07;19.10;99.90
18658;DHT22;9458;50.942;5.074;2022-10-03T12:56:43;19.00;99.90
18658;DHT22;9458;50.942;5.074;2022-10-03T12:59:21;19.10;99.90
18658;DHT22;9458;50.942;5.074;2022-10-03T13:02:21;19.00;99.90
18658;DHT22;9458;50.942;5.074;2022-10-03T13:08:04;19.00;99.90
18658;DHT22;9458;50.942;5.074;2022-10-03T13:10:38;19.00;99.90
18658;DHT22;9458;50.942;5.074;2022-10-03T13:13:22;19.00;99.90
18658;DHT22;9458;50.942;5.074;2022-10-03T13:16:06;19.00;99.90
18658;DHT22;9458;50.942;5.074;2022-10-03T13:18:56;19.00;99.90
18658;DHT22;9458;50.942;5.074;2022-10-03T13:21:49;19.00;99.90
18658;DHT22;9458;50.942;5.074;2022-10-03T13:24:26;19.10;99.90
18658;DHT22;9458;50.942;5.074;2022-10-03T13:27:04;19.10;99.90
18658;DHT22;9458;50.942;5.074;2022-10-03T13:29:39;19.10;99.90
18658;DHT22;9458;50.942;5.074;2022-10-03T13:32:28;19.20;99.90
18658;DHT22;9458;50.942;5.074;2022-10-03T13:35:13;19.20;99.90
18658;DHT22;9458;50.942;5.074;2022-10-03T13:41:12;19.30;99.90
18658;DHT22;9458;50.942;5.074;2022-10-03T13:43:50;19.40;99.90
18658;DHT22;9458;50.942;5.074;2022-10-03T13:46:25;19.40;99.90
18658;DHT22;9458;50.942;5.074;2022-10-03T13:48:57;19.40;99.90
18658;DHT22;9458;50.942;5.074;2022-10-03T13:51:33;19.40;99.90
18658;DHT22;9458;50.942;5.074;2022-10-03T13:54:07;19.40;99.90
18658;DHT22;9458;50.942;5.074;2022-10-03T13:56:50;19.40;99.90
18658;DHT22;9458;50.942;5.074;2022-10-03T13:59:38;19.40;99.90
18658;DHT22;9458;50.942;5.074;2022-10-03T14:02:31;19.40;99.90
18658;DHT22;9458;50.942;5.074;2022-10-03T14:11:17;19.20;99.90
18658;DHT22;9458;50.942;5.074;2022-10-03T14:16:48;19.20;99.90
18658;DHT22;9458;50.942;5.074;2022-10-03T14:19:26;19.10;99.90
18658;DHT22;9458;50.942;5.074;2022-10-03T14:22:17;19.00;99.90
18658;DHT22;9458;50.942;5.074;2022-10-03T14:24:59;19.00;99.90
18658;DHT22;9458;50.942;5.074;2022-10-03T14:27:48;18.90;99.90
18658;DHT22;9458;50.942;5.074;2022-10-03T14:30:19;18.90;99.90
18658;DHT22;9458;50.942;5.074;2022-10-03T14:33:00;18.90;99.90
18658;DHT22;9458;50.942;5.074;2022-10-03T14:35:41;18.80;99.90
18658;DHT22;9458;50.942;5.074;2022-10-03T14:41:48;18.80;99.90
18658;DHT22;9458;50.942;5.074;2022-10-03T14:44:27;18.80;99.90
18658;DHT22;9458;50.942;5.074;2022-10-03T14:46:59;18.80;99.90
18658;DHT22;9458;50.942;5.074;2022-10-03T14:49:29;18.80;99.90
18658;DHT22;9458;50.942;5.074;2022-10-03T14:52:01;18.70;99.90
18658;DHT22;9458;50.942;5.074;2022-10-03T14:54:31;18.70;99.90
18658;DHT22;9458;50.942;5.074;2022-10-03T14:57:13;18.70;99.90
18658;DHT22;9458;50.942;5.074;2022-10-03T14:59:51;18.70;99.90
18658;DHT22;9458;50.942;5.074;2022-10-03T15:02:28;18.70;99.90
18658;DHT22;9458;50.942;5.074;2022-10-03T15:05:05;18.70;99.90
18658;DHT22;9458;50.942;5.074;2022-10-03T15:07:35;18.60;99.90
18658;DHT22;9458;50.942;5.074;2022-10-03T15:10:08;18.60;99.90
18658;DHT22;9458;50.942;5.074;2022-10-03T15:12:41;18.60;99.90
18658;DHT22;9458;50.942;5.074;2022-10-03T15:19:13;18.60;99.90
18658;DHT22;9458;50.942;5.074;2022-10-03T15:26:18;18.50;99.90
18658;DHT22;9458;50.942;5.074;2022-10-03T15:44:09;18.30;99.90
18658;DHT22;9458;50.942;5.074;2022-10-03T15:57:57;18.20;99.90
18658;DHT22;9458;50.942;5.074;2022-10-03T16:00:29;18.10;99.90
18658;DHT22;9458;50.942;5.074;2022-10-03T16:03:07;18.20;99.90
18658;DHT22;9458;50.942;5.074;2022-10-03T16:05:44;18.20;99.90
18658;DHT22;9458;50.942;5.074;2022-10-03T16:08:18;18.20;99.90
18658;DHT22;9458;50.942;5.074;2022-10-03T16:10:56;18.10;99.90
18658;DHT22;9458;50.942;5.074;2022-10-03T16:13:33;18.00;99.90
18658;DHT22;9458;50.942;5.074;2022-10-03T16:16:18;18.00;99.90
18658;DHT22;9458;50.942;5.074;2022-10-03T16:18:55;18.00;99.90
18658;DHT22;9458;50.942;5.074;2022-10-03T16:21:37;17.90;99.90
18658;DHT22;9458;50.942;5.074;2022-10-03T16:24:13;17.80;99.90
18658;DHT22;9458;50.942;5.074;2022-10-03T16:26:49;17.80;99.90
18658;DHT22;9458;50.942;5.074;2022-10-03T16:29:25;17.70;99.90
18658;DHT22;9458;50.942;5.074;2022-10-03T16:32:03;17.70;99.90
18658;DHT22;9458;50.942;5.074;2022-10-03T16:34:31;17.60;99.90
18658;DHT22;9458;50.942;5.074;2022-10-03T16:37:01;17.50;99.90
18658;DHT22;9458;50.942;5.074;2022-10-03T16:39:33;17.50;99.90
18658;DHT22;9458;50.942;5.074;2022-10-03T16:42:09;17.50;99.90
18658;DHT22;9458;50.942;5.074;2022-10-03T16:44:45;17.50;99.90
18658;DHT22;9458;50.942;5.074;2022-10-03T16:47:17;17.40;99.90
18658;DHT22;9458;50.942;5.074;2022-10-03T16:49:55;17.40;99.90
18658;DHT22;9458;50.942;5.074;2022-10-03T16:52:42;17.40;99.90
18658;DHT22;9458;50.942;5.074;2022-10-03T16:55:15;17.30;99.90
18658;DHT22;9458;50.942;5.074;2022-10-03T16:57:46;17.30;99.90
18658;DHT22;9458;50.942;5.074;2022-10-03T17:14:17;17.00;99.90
18658;DHT22;9458;50.942;5.074;2022-10-03T17:16:50;17.00;99.90
18658;DHT22;9458;50.942;5.074;2022-10-03T17:19:24;16.90;99.90
18658;DHT22;9458;50.942;5.074;2022-10-03T17:21:57;16.90;99.90
18658;DHT22;9458;50.942;5.074;2022-10-03T17:24:35;16.90;99.90
18658;DHT22;9458;50.942;5.074;2022-10-03T17:27:09;16.80;99.90
18658;DHT22;9458;50.942;5.074;2022-10-03T17:29:47;16.80;99.90
18658;DHT22;9458;50.942;5.074;2022-10-03T17:32:24;16.80;99.90
18658;DHT22;9458;50.942;5.074;2022-10-03T17:34:59;16.70;99.90
18658;DHT22;9458;50.942;5.074;2022-10-03T17:37:44;16.70;99.90
18658;DHT22;9458;50.942;5.074;2022-10-03T17:40:20;16.70;99.90
18658;DHT22;9458;50.942;5.074;2022-10-03T17:42:53;16.70;99.90
18658;DHT22;9458;50.942;5.074;2022-10-03T17:45:31;16.70;99.90
18658;DHT22;9458;50.942;5.074;2022-10-03T17:48:08;16.60;99.90
18658;DHT22;9458;50.942;5.074;2022-10-03T17:50:40;16.60;99.90
18658;DHT22;9458;50.942;5.074;2022-10-03T17:53:17;16.60;99.90
18658;DHT22;9458;50.942;5.074;2022-10-03T17:55:52;16.50;99.90
18658;DHT22;9458;50.942;5.074;2022-10-03T17:58:22;16.50;99.90
18658;DHT22;9458;50.942;5.074;2022-10-03T18:01:09;16.50;99.90
18658;DHT22;9458;50.942;5.074;2022-10-03T18:03:42;16.50;99.90
18658;DHT22;9458;50.942;5.074;2022-10-03T18:09:27;16.40;99.90
18658;DHT22;9458;50.942;5.074;2022-10-03T18:12:04;16.30;99.90
18658;DHT22;9458;50.942;5.074;2022-10-03T18:17:47;16.30;99.90
18658;DHT22;9458;50.942;5.074;2022-10-03T18:20:32;16.30;99.90
18658;DHT22;9458;50.942;5.074;2022-10-03T18:23:04;16.20;99.90
18658;DHT22;9458;50.942;5.074;2022-10-03T18:25:47;16.20;99.90
18658;DHT22;9458;50.942;5.074;2022-10-03T18:28:31;16.20;99.90
18658;DHT22;9458;50.942;5.074;2022-10-03T18:31:03;16.20;99.90
18658;DHT22;9458;50.942;5.074;2022-10-03T18:33:43;16.10;99.90
18658;DHT22;9458;50.942;5.074;2022-10-03T18:36:19;16.10;99.90
18658;DHT22;9458;50.942;5.074;2022-10-03T18:38:58;16.10;99.90
18658;DHT22;9458;50.942;5.074;2022-10-03T18:41:28;16.00;99.90
18658;DHT22;9458;50.942;5.074;2022-10-03T18:43:58;16.00;99.90
18658;DHT22;9458;50.942;5.074;2022-10-03T18:46:29;16.00;99.90
18658;DHT22;9458;50.942;5.074;2022-10-03T18:49:06;15.90;99.90
18658;DHT22;9458;50.942;5.074;2022-10-03T18:51:43;15.90;99.90
18658;DHT22;9458;50.942;5.074;2022-10-03T18:54:23;15.90;99.90
18658;DHT22;9458;50.942;5.074;2022-10-03T18:57:04;15.80;99.90
18658;DHT22;9458;50.942;5.074;2022-10-03T18:59:36;15.80;99.90
18658;DHT22;9458;50.942;5.074;2022-10-03T19:02:15;15.70;99.90
18658;DHT22;9458;50.942;5.074;2022-10-03T19:04:51;15.60;99.90
18658;DHT22;9458;50.942;5.074;2022-10-03T19:07:22;15.60;99.90
18658;DHT22;9458;50.942;5.074;2022-10-03T19:13:00;15.50;99.90
18658;DHT22;9458;50.942;5.074;2022-10-03T19:15:39;15.50;99.90
18658;DHT22;9458;50.942;5.074;2022-10-03T19:18:18;15.50;99.90
18658;DHT22;9458;50.942;5.074;2022-10-03T19:20:50;15.40;99.90
18658;DHT22;9458;50.942;5.074;2022-10-03T19:23:20;15.40;99.90
18658;DHT22;9458;50.942;5.074;2022-10-03T19:25:53;15.40;99.90
18658;DHT22;9458;50.942;5.074;2022-10-03T19:28:26;15.30;99.90
18658;DHT22;9458;50.942;5.074;2022-10-03T19:30:58;15.30;99.90
18658;DHT22;9458;50.942;5.074;2022-10-03T19:33:55;15.30;99.90
18658;DHT22;9458;50.942;5.074;2022-10-03T19:36:30;15.30;99.90
18658;DHT22;9458;50.942;5.074;2022-10-03T19:38:58;15.20;99.90
18658;DHT22;9458;50.942;5.074;2022-10-03T19:41:31;15.10;99.90
18658;DHT22;9458;50.942;5.074;2022-10-03T19:44:04;15.10;99.90
18658;DHT22;9458;50.942;5.074;2022-10-03T19:47:04;15.10;99.90
18658;DHT22;9458;50.942;5.074;2022-10-03T19:49:44;15.00;99.90
18658;DHT22;9458;50.942;5.074;2022-10-03T19:52:23;15.00;99.90
18658;DHT22;9458;50.942;5.074;2022-10-03T19:54:57;15.00;99.90
18658;DHT22;9458;50.942;5.074;2022-10-03T19:57:33;14.90;99.90
18658;DHT22;9458;50.942;5.074;2022-10-03T20:00:07;14.90;99.90
18658;DHT22;9458;50.942;5.074;2022-10-03T20:02:52;14.80;99.90
18658;DHT22;9458;50.942;5.074;2022-10-03T20:05:24;14.80;99.90
18658;DHT22;9458;50.942;5.074;2022-10-03T20:07:59;14.80;99.90
18658;DHT22;9458;50.942;5.074;2022-10-03T20:10:46;14.80;99.90
18658;DHT22;9458;50.942;5.074;2022-10-03T20:13:14;14.70;99.90
18658;DHT22;9458;50.942;5.074;2022-10-03T20:15:43;14.70;99.90
18658;DHT22;9458;50.942;5.074;2022-10-03T20:18:20;14.60;99.90
18658;DHT22;9458;50.942;5.074;2022-10-03T20:20:51;14.50;99.90
18658;DHT22;9458;50.942;5.074;2022-10-03T20:23:23;14.50;99.90
18658;DHT22;9458;50.942;5.074;2022-10-03T20:25:55;14.50;99.90
18658;DHT22;9458;50.942;5.074;2022-10-03T20:28:32;14.50;99.90
18658;DHT22;9458;50.942;5.074;2022-10-03T20:31:04;14.40;99.90
18658;DHT22;9458;50.942;5.074;2022-10-03T20:33:33;14.50;99.90
18658;DHT22;9458;50.942;5.074;2022-10-03T20:36:03;14.50;99.90
18658;DHT22;9458;50.942;5.074;2022-10-03T20:52:14;14.40;99.90
18658;DHT22;9458;50.942;5.074;2022-10-03T20:54:47;14.40;99.90
18658;DHT22;9458;50.942;5.074;2022-10-03T20:57:18;14.30;99.90
18658;DHT22;9458;50.942;5.074;2022-10-03T20:59:54;14.30;99.90
18658;DHT22;9458;50.942;5.074;2022-10-03T21:02:28;14.30;99.90
18658;DHT22;9458;50.942;5.074;2022-10-03T21:05:01;14.30;99.90
18658;DHT22;9458;50.942;5.074;2022-10-03T21:07:35;14.30;99.90
18658;DHT22;9458;50.942;5.074;2022-10-03T21:10:17;14.30;99.90
18658;DHT22;9458;50.942;5.074;2022-10-03T21:12:50;14.30;99.90
18658;DHT22;9458;50.942;5.074;2022-10-03T21:15:28;14.20;99.90
18658;DHT22;9458;50.942;5.074;2022-10-03T21:17:59;14.20;99.90
18658;DHT22;9458;50.942;5.074;2022-10-03T21:20:31;14.20;99.90
18658;DHT22;9458;50.942;5.074;2022-10-03T21:23:15;14.20;99.90
18658;DHT22;9458;50.942;5.074;2022-10-03T21:25:56;14.10;99.90
18658;DHT22;9458;50.942;5.074;2022-10-03T21:28:29;14.10;99.90
18658;DHT22;9458;50.942;5.074;2022-10-03T21:33:50;14.00;99.90
18658;DHT22;9458;50.942;5.074;2022-10-03T21:36:25;14.00;99.90
18658;DHT22;9458;50.942;5.074;2022-10-03T21:39:02;14.00;99.90
18658;DHT22;9458;50.942;5.074;2022-10-03T21:41:41;13.90;99.90
18658;DHT22;9458;50.942;5.074;2022-10-03T21:44:24;13.90;99.90